CheckWX is a tool to help pilots better visualize weather data.  It is not intended as a substitute for an official pre-flight weather briefing.

14:04:39 UTC

KTOA METAR
Zamperini Field Airport
Torrance, California, USA
Current

18 mins ago

KTOA 251347Z COR 11005KT 3SM BR FEW006 OVC009 14/12 A2999
Observed
Apr-25 @ 13:47 UTC
Wind
  • 110° at 5 KTS
Visibility
3 SM
Flight Rules
IFR
Conditions
Mist
Cloud Levels
  • Few at 600' AGL
  • Overcast at 900' AGL
Temperature
14°C / 57°F
Dewpoint
12°C / 54°F
Humidity
88%
Altimeter
29.99" Hg
Pressure
1015.62 hPa
Previous

11 hours ago

KTOA 250247Z 27009KT 10SM FEW008 14/13 A2994 RMK ST W
Observed
Apr-25 @ 02:47 UTC
Wind
  • 270° at 9 KTS
Visibility
10 SM
Flight Rules
VFR
Cloud Levels
  • Few at 800' AGL
Temperature
14°C / 57°F
Dewpoint
13°C / 55°F
Humidity
94%
Altimeter
29.94" Hg
Pressure
1013.92 hPa
Previous

12 hours ago

KTOA 250152Z 28013KT 10SM FEW008 15/13 A2992
Observed
Apr-25 @ 01:52 UTC
Wind
  • 280° at 13 KTS
Visibility
10 SM
Flight Rules
VFR
Cloud Levels
  • Few at 800' AGL
Temperature
15°C / 59°F
Dewpoint
13°C / 55°F
Humidity
88%
Altimeter
29.92" Hg
Pressure
1013.22 hPa